Ginga — JJ4054 — position and weather

sailwx.info

Track history (hours):
 
Tides and Currents Weather Stations Pressure Air Temp Water Temp Dewpoint Dewpoint Depression Visibility Wind Speed Wind Dir Waves Ship Positions

Ginga

Last reported at 2018-Jun-22 22:36 UTC. Time now 2018-Jun-25 13:46 UTC.
Position N 34°39' E 135°09'.

Length 28 m; draft 1.6 m.

Type: Other ship. MMSI: 431301704.

Date/timePositionNaut miles runAvg speedWind from/ knotsBaromVisibWave heightAir tempDewpointWater temp
2018-Jun-22 22:36N 34°39' E 135°09'0 4.7
2018-Jun-22 22:30N 34°39' E 135°10'1 0.5
2018-Jun-22 19:56N 34°40' E 135°11'4 9.8
2018-Jun-22 19:30N 34°38' E 135°07'714.0
2018-Jun-22 18:59N 34°37' E 134°58'5 9.9
2018-Jun-22 18:30N 34°36' E 135°04'3 6.4
2018-Jun-22 18:00N 34°34' E 135°07'815.0
2018-Jun-22 17:30N 34°28' E 135°03'815.3
2018-Jun-22 17:00N 34°22' E 134°56'2 4.2
2018-Jun-22 16:30N 34°21' E 134°54'0 0.0
2018-Jun-22 08:03N 34°21' E 134°54'0 3.7
2018-Jun-22 08:01N 34°21' E 134°54'611.5
2018-Jun-22 07:30N 34°16' E 134°58'815.1
2018-Jun-22 07:00N 34°23' E 135°00'815.2
2018-Jun-22 06:30N 34°30' E 135°04'4 7.7
2018-Jun-22 06:00N 34°34' E 135°06'4 8.7
2018-Jun-22 05:30N 34°36' E 135°02'814.4
2018-Jun-22 04:56N 34°34' E 134°52'615.0
2018-Jun-22 04:30N 34°31' E 134°45'814.9
2018-Jun-22 03:59N 34°29' E 134°36'16 0.8
2018-Jun-21 09:04N 34°37' E 134°53'217.0
2018-Jun-21 08:58N 34°37' E 134°54'816.6
2018-Jun-21 08:30N 34°36' E 135°04'5 5.4
2018-Jun-21 07:29N 34°37' E 134°58'714.5
2018-Jun-21 07:00N 34°37' E 135°06'3 6.5
2018-Jun-21 06:30N 34°39' E 135°09'0 0.0
2018-Jun-21 06:00N 34°39' E 135°09'0 0.0
2018-Jun-20 09:03N 34°39' E 135°09'0 2.5
2018-Jun-20 09:00N 34°39' E 135°10'611.2
2018-Jun-20 08:28N 34°35' E 135°04'611.4
2018-Jun-20 07:56N 34°36' E 134°57'2 5.0
2018-Jun-20 07:28N 34°38' E 134°59'3 1.0
2018-Jun-20 03:48N 34°38' E 135°03'2 7.1
2018-Jun-20 03:30N 34°35' E 135°03'6 7.0
2018-Jun-20 02:40N 34°37' E 134°56'213.0
2018-Jun-20 02:30N 34°38' E 134°58'4 1.4
2018-Jun-20 00:00N 34°37' E 135°03'1 1.6
2018-Jun-19 23:22N 34°37' E 135°02'411.7
2018-Jun-19 23:00N 34°35' E 135°06'2 4.6
2018-Jun-19 22:30N 34°34' E 135°09'3 5.8
2018-Jun-19 22:00N 34°36' E 135°06'3 1.2
2018-Jun-19 19:46N 34°38' E 135°03'414.0
2018-Jun-19 19:28N 34°38' E 134°58'3 4.6
2018-Jun-19 18:53N 34°37' E 135°01'411.6
2018-Jun-19 18:30N 34°35' E 135°06'5 9.1
2018-Jun-19 18:00N 34°38' E 135°10'1 1.7
2018-Jun-19 17:30N 34°39' E 135°09'0 0.0
2018-Jun-18 19:40N 34°39' E 135°09'1 4.6
2018-Jun-18 19:30N 34°38' E 135°09'816.5
2018-Jun-18 19:00N 34°38' E 134°59'1 1.3
2018-Jun-18 18:30N 34°38' E 134°59'612.1
2018-Jun-18 18:00N 34°35' E 135°05'3 5.8
2018-Jun-18 17:30N 34°36' E 135°09'3 6.6
2018-Jun-18 17:00N 34°39' E 135°09'0 0.0
2018-Jun-18 08:12N 34°39' E 135°09'1 7.2
2018-Jun-18 08:00N 34°38' E 135°09'710.9
2018-Jun-18 07:23N 34°37' E 135°01'2 5.7
2018-Jun-18 07:00N 34°38' E 134°58'4 1.8
2018-Jun-18 04:46N 34°38' E 135°03'413.3
2018-Jun-18 04:29N 34°38' E 134°59'3 5.7
2018-Jun-18 03:59N 34°37' E 135°02'5 9.4
2018-Jun-18 03:30N 34°35' E 135°07'3 5.8
2018-Jun-18 03:00N 34°37' E 135°09'2 4.5
2018-Jun-18 02:30N 34°39' E 135°09'0 0.0
2018-Jun-18 02:00N 34°39' E 135°09'0 0.0
2018-Jun-17 20:01N 34°39' E 135°09'0 1.1
2018-Jun-17 20:00N 34°39' E 135°09'612.0
2018-Jun-17 19:29N 34°37' E 135°02'5 8.8
2018-Jun-17 18:58N 34°37' E 134°57'511.1
2018-Jun-17 18:30N 34°36' E 135°03'5 9.3
2018-Jun-17 18:00N 34°35' E 135°08'4 7.1
2018-Jun-17 17:30N 34°31' E 135°09'510.4
2018-Jun-17 17:00N 34°27' E 135°05'713.0
2018-Jun-17 16:30N 34°21' E 135°01'713.3
2018-Jun-17 16:00N 34°15' E 134°59'611.1
2018-Jun-17 15:31N 34°09' E 134°59'612.6
2018-Jun-17 15:00N 34°15' E 134°58'816.3
2018-Jun-17 14:30N 34°23' E 135°01'918.2
2018-Jun-17 14:00N 34°31' E 135°06'816.7
2018-Jun-17 13:30N 34°39' E 135°10'0 0.6
2018-Jun-17 13:00N 34°39' E 135°09'0 0.0
2018-Jun-16 07:15N 34°39' E 135°10'416.6
2018-Jun-16 07:00N 34°35' E 135°09'816.7
2018-Jun-16 06:30N 34°27' E 135°06'815.9
2018-Jun-16 06:00N 34°20' E 135°01'5 9.8
2018-Jun-16 05:31N 34°16' E 134°58'714.2
2018-Jun-16 05:00N 34°23' E 134°60'714.7
2018-Jun-16 04:30N 34°30' E 135°04'5 8.0
2018-Jun-16 03:56N 34°34' E 135°05'10 9.9
2018-Jun-16 02:53N 34°34' E 134°53'811.2
2018-Jun-16 02:11N 34°33' E 134°43'212.6
2018-Jun-16 02:00N 34°35' E 134°42'4 0.1
2018-Jun-14 19:33N 34°39' E 134°42'412.2
2018-Jun-14 19:12N 34°35' E 134°42'813.5
2018-Jun-14 18:36N 34°35' E 134°52'215.5
2018-Jun-14 18:30N 34°36' E 134°54'6 9.8
2018-Jun-14 17:53N 34°37' E 135°01'410.4
2018-Jun-14 17:30N 34°36' E 135°06'3 5.7
2018-Jun-14 17:00N 34°34' E 135°08'4 7.5
2018-Jun-14 16:30N 34°30' E 135°07'510.5
2018-Jun-14 16:00N 34°26' E 135°04'612.0
2018-Jun-14 15:30N 34°20' E 135°01'613.0
2018-Jun-14 15:00N 34°14' E 134°59'2 5.0
2018-Jun-14 14:30N 34°11' E 134°59'612.4
2018-Jun-14 14:01N 34°18' E 134°58'5 9.1
2018-Jun-14 13:30N 34°21' E 134°54'0 0.0
2018-Jun-14 07:46N 34°21' E 134°54'311.9
2018-Jun-14 07:30N 34°19' E 134°57'2 4.1
2018-Jun-14 07:00N 34°20' E 134°59'714.3
2018-Jun-14 06:30N 34°27' E 135°03'611.5
2018-Jun-14 05:59N 34°32' E 135°06'910.1
2018-Jun-14 05:08N 34°36' E 134°57'1 9.3
2018-Jun-14 05:00N 34°35' E 134°55'811.4
2018-Jun-14 04:16N 34°33' E 134°46'312.1
2018-Jun-14 03:59N 34°35' E 134°42'1 0.0
2018-Jun-12 23:12N 34°36' E 134°42'712.0
2018-Jun-12 22:37N 34°34' E 134°50'  
Track history (hours):
 
Tides and Currents Weather Stations Pressure Air Temp Water Temp Dewpoint Dewpoint Depression Visibility Wind Speed Wind Dir Waves Ship Positions

Ginga

Last reported at 2018-Jun-22 22:36 UTC. Time now 2018-Jun-25 13:46 UTC.
Position N 34°39' E 135°09'.

Length 28 m; draft 1.6 m.

Type: Other ship. MMSI: 431301704.

Date/timePositionNaut miles runAvg speedWind from/ knotsBaromVisibWave heightAir tempDewpointWater temp
2018-Jun-22 22:36N 34°39' E 135°09'0 4.7
2018-Jun-22 22:30N 34°39' E 135°10'1 0.5
2018-Jun-22 19:56N 34°40' E 135°11'4 9.8
2018-Jun-22 19:30N 34°38' E 135°07'714.0
2018-Jun-22 18:59N 34°37' E 134°58'5 9.9
2018-Jun-22 18:30N 34°36' E 135°04'3 6.4
2018-Jun-22 18:00N 34°34' E 135°07'815.0
2018-Jun-22 17:30N 34°28' E 135°03'815.3
2018-Jun-22 17:00N 34°22' E 134°56'2 4.2
2018-Jun-22 16:30N 34°21' E 134°54'0 0.0
2018-Jun-22 08:03N 34°21' E 134°54'0 3.7
2018-Jun-22 08:01N 34°21' E 134°54'611.5
2018-Jun-22 07:30N 34°16' E 134°58'815.1
2018-Jun-22 07:00N 34°23' E 135°00'815.2
2018-Jun-22 06:30N 34°30' E 135°04'4 7.7
2018-Jun-22 06:00N 34°34' E 135°06'4 8.7
2018-Jun-22 05:30N 34°36' E 135°02'814.4
2018-Jun-22 04:56N 34°34' E 134°52'615.0
2018-Jun-22 04:30N 34°31' E 134°45'814.9
2018-Jun-22 03:59N 34°29' E 134°36'16 0.8
2018-Jun-21 09:04N 34°37' E 134°53'217.0
2018-Jun-21 08:58N 34°37' E 134°54'816.6
2018-Jun-21 08:30N 34°36' E 135°04'5 5.4
2018-Jun-21 07:29N 34°37' E 134°58'714.5
2018-Jun-21 07:00N 34°37' E 135°06'3 6.5
2018-Jun-21 06:30N 34°39' E 135°09'0 0.0
2018-Jun-21 06:00N 34°39' E 135°09'0 0.0
2018-Jun-20 09:03N 34°39' E 135°09'0 2.5
2018-Jun-20 09:00N 34°39' E 135°10'611.2
2018-Jun-20 08:28N 34°35' E 135°04'611.4
2018-Jun-20 07:56N 34°36' E 134°57'2 5.0
2018-Jun-20 07:28N 34°38' E 134°59'3 1.0
2018-Jun-20 03:48N 34°38' E 135°03'2 7.1
2018-Jun-20 03:30N 34°35' E 135°03'6 7.0
2018-Jun-20 02:40N 34°37' E 134°56'213.0
2018-Jun-20 02:30N 34°38' E 134°58'4 1.4
2018-Jun-20 00:00N 34°37' E 135°03'1 1.6
2018-Jun-19 23:22N 34°37' E 135°02'411.7
2018-Jun-19 23:00N 34°35' E 135°06'2 4.6
2018-Jun-19 22:30N 34°34' E 135°09'3 5.8
2018-Jun-19 22:00N 34°36' E 135°06'3 1.2
2018-Jun-19 19:46N 34°38' E 135°03'414.0
2018-Jun-19 19:28N 34°38' E 134°58'3 4.6
2018-Jun-19 18:53N 34°37' E 135°01'411.6
2018-Jun-19 18:30N 34°35' E 135°06'5 9.1
2018-Jun-19 18:00N 34°38' E 135°10'1 1.7
2018-Jun-19 17:30N 34°39' E 135°09'0 0.0
2018-Jun-18 19:40N 34°39' E 135°09'1 4.6
2018-Jun-18 19:30N 34°38' E 135°09'816.5
2018-Jun-18 19:00N 34°38' E 134°59'1 1.3
2018-Jun-18 18:30N 34°38' E 134°59'612.1
2018-Jun-18 18:00N 34°35' E 135°05'3 5.8
2018-Jun-18 17:30N 34°36' E 135°09'3 6.6
2018-Jun-18 17:00N 34°39' E 135°09'0 0.0
2018-Jun-18 08:12N 34°39' E 135°09'1 7.2
2018-Jun-18 08:00N 34°38' E 135°09'710.9
2018-Jun-18 07:23N 34°37' E 135°01'2 5.7
2018-Jun-18 07:00N 34°38' E 134°58'4 1.8
2018-Jun-18 04:46N 34°38' E 135°03'413.3
2018-Jun-18 04:29N 34°38' E 134°59'3 5.7
2018-Jun-18 03:59N 34°37' E 135°02'5 9.4
2018-Jun-18 03:30N 34°35' E 135°07'3 5.8
2018-Jun-18 03:00N 34°37' E 135°09'2 4.5
2018-Jun-18 02:30N 34°39' E 135°09'0 0.0
2018-Jun-18 02:00N 34°39' E 135°09'0 0.0
2018-Jun-17 20:01N 34°39' E 135°09'0 1.1
2018-Jun-17 20:00N 34°39' E 135°09'612.0
2018-Jun-17 19:29N 34°37' E 135°02'5 8.8
2018-Jun-17 18:58N 34°37' E 134°57'511.1
2018-Jun-17 18:30N 34°36' E 135°03'5 9.3
2018-Jun-17 18:00N 34°35' E 135°08'4 7.1
2018-Jun-17 17:30N 34°31' E 135°09'510.4
2018-Jun-17 17:00N 34°27' E 135°05'713.0
2018-Jun-17 16:30N 34°21' E 135°01'713.3
2018-Jun-17 16:00N 34°15' E 134°59'611.1
2018-Jun-17 15:31N 34°09' E 134°59'612.6
2018-Jun-17 15:00N 34°15' E 134°58'816.3
2018-Jun-17 14:30N 34°23' E 135°01'918.2
2018-Jun-17 14:00N 34°31' E 135°06'816.7
2018-Jun-17 13:30N 34°39' E 135°10'0 0.6
2018-Jun-17 13:00N 34°39' E 135°09'0 0.0
2018-Jun-16 07:15N 34°39' E 135°10'416.6
2018-Jun-16 07:00N 34°35' E 135°09'816.7
2018-Jun-16 06:30N 34°27' E 135°06'815.9
2018-Jun-16 06:00N 34°20' E 135°01'5 9.8
2018-Jun-16 05:31N 34°16' E 134°58'714.2
2018-Jun-16 05:00N 34°23' E 134°60'714.7
2018-Jun-16 04:30N 34°30' E 135°04'5 8.0
2018-Jun-16 03:56N 34°34' E 135°05'10 9.9
2018-Jun-16 02:53N 34°34' E 134°53'811.2
2018-Jun-16 02:11N 34°33' E 134°43'212.6
2018-Jun-16 02:00N 34°35' E 134°42'4 0.1
2018-Jun-14 19:33N 34°39' E 134°42'412.2
2018-Jun-14 19:12N 34°35' E 134°42'813.5
2018-Jun-14 18:36N 34°35' E 134°52'215.5
2018-Jun-14 18:30N 34°36' E 134°54'6 9.8
2018-Jun-14 17:53N 34°37' E 135°01'410.4
2018-Jun-14 17:30N 34°36' E 135°06'3 5.7
2018-Jun-14 17:00N 34°34' E 135°08'4 7.5
2018-Jun-14 16:30N 34°30' E 135°07'510.5
2018-Jun-14 16:00N 34°26' E 135°04'612.0
2018-Jun-14 15:30N 34°20' E 135°01'613.0
2018-Jun-14 15:00N 34°14' E 134°59'2 5.0
2018-Jun-14 14:30N 34°11' E 134°59'612.4
2018-Jun-14 14:01N 34°18' E 134°58'5 9.1
2018-Jun-14 13:30N 34°21' E 134°54'0 0.0
2018-Jun-14 07:46N 34°21' E 134°54'311.9
2018-Jun-14 07:30N 34°19' E 134°57'2 4.1
2018-Jun-14 07:00N 34°20' E 134°59'714.3
2018-Jun-14 06:30N 34°27' E 135°03'611.5
2018-Jun-14 05:59N 34°32' E 135°06'910.1
2018-Jun-14 05:08N 34°36' E 134°57'1 9.3
2018-Jun-14 05:00N 34°35' E 134°55'811.4
2018-Jun-14 04:16N 34°33' E 134°46'312.1
2018-Jun-14 03:59N 34°35' E 134°42'1 0.0
2018-Jun-12 23:12N 34°36' E 134°42'712.0
2018-Jun-12 22:37N 34°34' E 134°50'  

Dump ship's entire track history